createdAt,value
2018-12-04T00:01:02.739Z,97842.76
2018-12-04T00:03:33.472Z,97838.25
2018-12-04T00:06:04.521Z,97829.25
2018-12-04T00:08:35.235Z,97825.27
2018-12-04T00:11:05.785Z,97808.97
2018-12-04T00:13:39.465Z,97807.77
2018-12-04T00:16:10.729Z,97800.67
2018-12-04T00:18:41.745Z,97799.95
2018-12-04T00:21:14.778Z,97792.28
2018-12-04T00:23:47.794Z,97794.97
2018-12-04T00:26:18.705Z,97794.72
2018-12-04T00:28:51.787Z,97786.42
2018-12-04T00:31:25.806Z,97783.76
2018-12-04T00:33:56.301Z,97789.55
2018-12-04T00:36:27.063Z,97786.94
2018-12-04T00:38:57.365Z,97788.75
2018-12-04T00:41:27.613Z,97792.20
2018-12-04T00:44:01.611Z,97788.80
2018-12-04T00:46:31.749Z,97792.06
2018-12-04T00:49:02.958Z,97795.88
2018-12-04T00:51:42.012Z,97798.55
2018-12-04T00:54:12.859Z,97801.22
2018-12-04T00:56:42.963Z,97812.41
2018-12-04T00:59:16.992Z,97806.84
2018-12-04T01:01:47.989Z,97806.86
2018-12-04T01:04:18.385Z,97808.20
2018-12-04T01:06:48.852Z,97807.70
2018-12-04T01:09:18.965Z,97816.78
2018-12-04T01:11:55.888Z,97821.65
2018-12-04T01:14:26.985Z,97824.36
2018-12-04T01:16:56.977Z,97835.31
2018-12-04T01:19:27.541Z,97831.03
2018-12-04T01:22:01.111Z,97837.17
2018-12-04T01:24:30.835Z,97848.66
2018-12-04T01:27:00.907Z,97845.72
2018-12-04T01:29:30.973Z,97844.97
2018-12-04T01:32:03.821Z,97857.25
2018-12-04T01:34:34.400Z,97855.14
2018-12-04T01:37:06.373Z,97865.02
2018-12-04T01:39:37.307Z,97855.98
2018-12-04T01:42:08.279Z,97854.11
2018-12-04T01:44:41.344Z,97864.52
2018-12-04T01:47:13.109Z,97877.33
2018-12-04T01:49:45.355Z,97880.77
2018-12-04T01:52:15.459Z,97891.75
2018-12-04T01:54:46.632Z,97877.56
2018-12-04T01:57:16.830Z,97885.33
2018-12-04T01:59:47.081Z,97890.66
2018-12-04T02:02:17.276Z,97890.68
2018-12-04T02:04:48.052Z,97891.48
2018-12-04T02:07:18.306Z,97903.48
2018-12-04T02:09:55.130Z,97922.17
2018-12-04T02:12:26.270Z,97928.00
2018-12-04T02:14:59.255Z,97937.58
2018-12-04T02:17:31.104Z,97950.38
2018-12-04T02:20:03.267Z,97958.39
2018-12-04T02:22:34.326Z,97965.31
2018-12-04T02:25:05.757Z,97976.78
2018-12-04T02:27:37.255Z,97991.15
2018-12-04T02:30:09.221Z,97982.87
2018-12-04T02:32:39.937Z,97982.30
2018-12-04T02:35:10.371Z,97975.55
2018-12-04T02:37:41.188Z,97978.41
2018-12-04T02:40:11.430Z,97974.71
2018-12-04T02:42:42.821Z,97980.61
2018-12-04T02:45:13.504Z,97988.59
2018-12-04T02:47:44.306Z,97988.86
2018-12-04T02:50:15.443Z,97997.09
2018-12-04T02:52:45.472Z,97998.72
2018-12-04T02:55:17.434Z,98011.71
2018-12-04T02:57:47.588Z,98007.50
2018-12-04T03:00:18.369Z,98018.16
2018-12-04T03:02:48.403Z,98030.38
2018-12-04T03:05:19.227Z,98030.65
2018-12-04T03:07:49.502Z,98032.73
2018-12-04T03:10:20.152Z,98026.41
2018-12-04T03:12:51.317Z,98028.73
2018-12-04T03:15:21.506Z,98022.59
2018-12-04T03:17:51.940Z,98023.19
2018-12-04T03:20:22.554Z,98028.54
2018-12-04T03:22:53.539Z,98035.92
2018-12-04T03:25:24.016Z,98036.46
2018-12-04T03:27:54.612Z,98040.13
2018-12-04T03:30:32.051Z,98040.88
2018-12-04T03:33:03.798Z,98035.03
2018-12-04T03:35:34.738Z,98028.36
2018-12-04T03:38:12.453Z,98036.87
2018-12-04T03:40:42.576Z,98044.88
2018-12-04T03:43:13.687Z,98042.98
2018-12-04T03:45:44.633Z,98041.64
2018-12-04T03:48:15.592Z,98051.47
2018-12-04T03:50:45.716Z,98048.78
2018-12-04T03:53:22.628Z,98035.72
2018-12-04T03:55:53.612Z,98039.68
2018-12-04T03:58:23.730Z,98031.11
2018-12-04T04:00:54.697Z,98028.92
2018-12-04T04:03:24.819Z,98037.11
2018-12-04T04:05:54.902Z,98043.97
2018-12-04T04:08:25.951Z,98047.95
2018-12-04T04:11:04.904Z,98052.59
2018-12-04T04:13:35.822Z,98050.75
2018-12-04T04:16:06.358Z,98052.86
2018-12-04T04:18:37.079Z,98061.47
2018-12-04T04:21:07.659Z,98067.80
2018-12-04T04:23:38.107Z,98076.06
2018-12-04T04:26:08.575Z,98074.20
2018-12-04T04:28:39.600Z,98073.72
2018-12-04T04:31:09.852Z,98075.05
2018-12-04T04:33:40.603Z,98074.84
2018-12-04T04:36:11.104Z,98071.08
2018-12-04T04:38:41.641Z,98067.92
2018-12-04T04:41:12.053Z,98072.41
2018-12-04T04:43:43.174Z,98067.28
2018-12-04T04:46:14.520Z,98065.64
2018-12-04T04:48:43.837Z,98072.34
2018-12-04T04:51:18.033Z,98073.61
2018-12-04T04:53:50.941Z,98076.21
2018-12-04T04:56:22.097Z,98075.86
2018-12-04T04:58:53.141Z,98074.70
2018-12-04T05:01:24.161Z,98077.61
2018-12-04T05:03:54.237Z,98078.41
2018-12-04T05:06:25.052Z,98089.02
2018-12-04T05:09:08.660Z,98097.72
2018-12-04T05:11:39.111Z,98102.47
2018-12-04T05:14:12.091Z,98116.03
2018-12-04T05:16:43.101Z,98110.69
2018-12-04T05:19:13.263Z,98108.58
2018-12-04T05:21:44.084Z,98119.25
2018-12-04T05:24:15.050Z,98116.32
2018-12-04T05:26:45.136Z,98123.55
2018-12-04T05:29:16.060Z,98129.45
2018-12-04T05:31:46.207Z,98120.70
2018-12-04T05:34:17.136Z,98117.52
2018-12-04T05:36:47.354Z,98122.91
2018-12-04T05:39:18.140Z,98116.55
2018-12-04T05:41:49.140Z,98121.56
2018-12-04T05:44:19.332Z,98131.66
2018-12-04T05:46:56.317Z,98129.31
2018-12-04T05:49:27.861Z,98127.72
2018-12-04T05:52:00.372Z,98141.36
2018-12-04T05:54:34.312Z,98143.16
2018-12-04T05:57:12.100Z,97992.26
2018-12-04T05:59:44.147Z,98129.16
2018-12-04T06:02:15.280Z,98138.12
2018-12-04T06:04:46.324Z,98147.38
2018-12-04T06:07:19.430Z,98146.26
2018-12-04T06:09:50.369Z,98150.45
2018-12-04T06:12:21.459Z,98162.08
2018-12-04T06:14:52.339Z,98157.53
2018-12-04T06:17:22.957Z,98162.85
2018-12-04T06:19:53.462Z,98159.67
2018-12-04T06:22:28.029Z,98171.13
2018-12-04T06:25:00.380Z,98173.78
2018-12-04T06:27:37.356Z,98173.20
2018-12-04T06:30:08.698Z,98176.67
2018-12-04T06:32:40.514Z,98179.30
2018-12-04T06:35:12.228Z,98188.12
2018-12-04T06:37:43.037Z,98194.97
2018-12-04T06:40:13.313Z,98206.38
2018-12-04T06:42:45.052Z,98210.37
2018-12-04T06:45:17.414Z,98214.84
2018-12-04T06:47:48.619Z,98232.62
2018-12-04T06:50:21.492Z,98231.29
2018-12-04T06:53:27.204Z,98220.66
2018-12-04T06:55:59.649Z,98232.39
2018-12-04T06:58:31.272Z,98231.88
2018-12-04T07:01:03.446Z,98242.25
2018-12-04T07:03:37.342Z,98152.61
2018-12-04T07:06:07.702Z,98247.37
2018-12-04T07:08:38.763Z,98256.98
2018-12-04T07:11:12.465Z,98255.94
2018-12-04T07:13:42.699Z,98251.20
2018-12-04T07:16:19.532Z,98255.00
2018-12-04T07:18:50.633Z,98254.84
2018-12-04T07:21:21.739Z,98260.48
2018-12-04T07:23:54.653Z,98269.59
2018-12-04T07:26:25.693Z,98271.77
2018-12-04T07:28:56.631Z,98271.80
2018-12-04T07:31:31.406Z,98271.31
2018-12-04T07:34:03.629Z,98268.22
2018-12-04T07:36:35.568Z,98269.98
2018-12-04T07:39:08.877Z,98262.87
2018-12-04T07:41:41.653Z,98262.09
2018-12-04T07:44:18.807Z,98264.55
2018-12-04T07:46:49.081Z,98262.98
2018-12-04T07:49:20.031Z,98274.26
2018-12-04T07:51:52.772Z,98267.36
2018-12-04T07:54:23.880Z,98266.87
2018-12-04T07:56:55.411Z,98273.58
2018-12-04T07:59:28.173Z,98281.62
2018-12-04T08:02:00.229Z,98281.94
2018-12-04T08:04:31.863Z,98285.74
2018-12-04T08:07:02.920Z,98284.17
2018-12-04T08:09:39.966Z,98286.86
2018-12-04T08:12:10.833Z,98284.80
2018-12-04T08:14:41.475Z,98291.23
2018-12-04T08:17:12.067Z,98289.67
2018-12-04T08:19:42.972Z,98289.17
2018-12-04T08:22:19.914Z,98288.92
2018-12-04T08:24:52.917Z,98246.18
2018-12-04T08:27:31.264Z,98286.17
2018-12-04T08:30:05.867Z,98292.08
2018-12-04T08:32:38.014Z,98297.48
2018-12-04T08:35:10.847Z,98306.27
2018-12-04T08:37:42.000Z,98315.14
2018-12-04T08:40:16.002Z,98315.09
2018-12-04T08:42:46.587Z,98323.11
2018-12-04T08:45:17.084Z,98324.53
2018-12-04T08:47:47.664Z,98330.42
2018-12-04T08:50:18.145Z,98326.84
2018-12-04T08:52:48.572Z,98327.36
2018-12-04T08:55:19.031Z,98341.73
2018-12-04T08:57:50.017Z,98345.49
2018-12-04T09:00:20.233Z,98346.29
2018-12-04T09:02:51.124Z,98350.90
2018-12-04T09:05:22.965Z,98351.62
2018-12-04T09:08:01.002Z,98351.67
2018-12-04T09:10:34.200Z,98351.25
2018-12-04T09:13:12.480Z,98357.33
2018-12-04T09:15:45.018Z,98370.44
2018-12-04T09:18:16.201Z,98370.76
2018-12-04T09:20:47.705Z,98348.41
2018-12-04T09:23:20.512Z,98371.77
2018-12-04T09:25:51.242Z,98371.48
2018-12-04T09:28:27.264Z,98371.96
2018-12-04T09:31:04.970Z,98374.09
2018-12-04T09:33:36.221Z,98371.92
2018-12-04T09:36:07.470Z,98378.05
2018-12-04T09:38:41.132Z,98376.21
2018-12-04T09:41:11.954Z,98373.55
2018-12-04T09:43:42.552Z,98375.69
2018-12-04T09:46:15.290Z,98378.09
2018-12-04T09:48:46.501Z,98383.16
2018-12-04T09:51:19.454Z,98385.37
2018-12-04T09:53:56.012Z,98383.53
2018-12-04T09:56:28.639Z,98392.59
2018-12-04T09:58:59.305Z,98388.36
2018-12-04T10:01:31.348Z,98389.38
2018-12-04T10:04:04.565Z,98400.31
2018-12-04T10:06:37.417Z,98396.58
2018-12-04T10:09:09.797Z,98393.67
2018-12-04T10:11:42.473Z,98389.92
2018-12-04T10:14:17.197Z,98400.58
2018-12-04T10:16:49.482Z,98405.84
2018-12-04T10:19:23.452Z,98407.72
2018-12-04T10:22:02.989Z,98407.42
2018-12-04T10:24:35.134Z,98407.37
2018-12-04T10:27:07.665Z,98407.57
2018-12-04T10:29:40.453Z,98412.62
2018-12-04T10:32:11.522Z,98415.28
2018-12-04T10:34:45.122Z,98423.58
2018-12-04T10:37:19.914Z,98426.53
2018-12-04T10:39:52.424Z,98432.13
2018-12-04T10:42:26.522Z,98438.30
2018-12-04T10:44:57.588Z,98436.94
2018-12-04T10:47:28.354Z,98448.97
2018-12-04T10:49:59.696Z,98441.77
2018-12-04T10:52:36.024Z,98442.12
2018-12-04T10:55:07.407Z,98441.62
2018-12-04T10:57:38.009Z,98437.00
2018-12-04T11:00:13.411Z,98437.81
2018-12-04T11:02:47.512Z,98443.73
2018-12-04T11:05:17.887Z,98439.27
2018-12-04T11:07:48.830Z,98440.40
2018-12-04T11:10:21.957Z,98437.86
2018-12-04T11:12:52.831Z,98454.30
2018-12-04T11:15:24.182Z,98453.49
2018-12-04T11:17:56.737Z,98454.80
2018-12-04T11:24:21.613Z,98460.41
2018-12-04T11:26:52.757Z,98471.32
2018-12-04T11:29:24.095Z,98464.46
2018-12-04T11:31:54.892Z,98469.84
2018-12-04T11:34:26.879Z,98483.30
2018-12-04T11:36:57.928Z,98485.86
2018-12-04T11:39:28.461Z,98488.06
2018-12-04T11:42:00.737Z,98492.05
2018-12-04T11:44:31.892Z,98498.20
2018-12-04T11:47:02.969Z,98498.87
2018-12-04T11:49:34.944Z,98494.52
2018-12-04T11:52:07.773Z,98498.16
2018-12-04T11:54:37.929Z,98509.41
2018-12-04T11:57:09.163Z,98507.52
2018-12-04T11:59:39.654Z,98516.77
2018-12-04T12:02:10.893Z,98513.39
2018-12-04T12:04:41.268Z,98518.33
2018-12-04T12:07:12.357Z,98511.46
2018-12-04T12:09:45.020Z,98514.08
2018-12-04T12:12:17.929Z,98528.55
2018-12-04T12:14:49.094Z,98522.45
2018-12-04T12:17:28.417Z,98529.92
2018-12-04T12:19:59.180Z,98550.55
2018-12-04T12:22:29.356Z,98541.52
2018-12-04T12:25:00.453Z,98540.97
2018-12-04T12:27:31.096Z,98544.94
2018-12-04T12:30:01.784Z,98550.83
2018-12-04T12:32:32.361Z,98559.41
2018-12-04T12:35:03.474Z,98560.97
2018-12-04T12:37:33.755Z,98564.93
2018-12-04T12:40:06.185Z,98570.09
2018-12-04T12:42:38.320Z,98569.54
2018-12-04T12:45:10.489Z,98571.52
2018-12-04T12:47:43.109Z,98569.54
2018-12-04T12:50:14.088Z,98584.04
2018-12-04T12:52:44.537Z,98578.96
2018-12-04T12:55:17.088Z,98583.49
2018-12-04T12:57:49.042Z,98593.56
2018-12-04T13:00:23.422Z,98596.73
2018-12-04T13:02:56.250Z,98609.80
2018-12-04T13:05:32.100Z,98594.62
2018-12-04T13:08:25.830Z,98605.20
2018-12-04T13:10:58.076Z,98601.63
2018-12-04T13:13:29.196Z,98611.49
2018-12-04T13:16:00.177Z,98613.02
2018-12-04T13:18:30.506Z,98621.19
2018-12-04T13:21:01.399Z,98642.88
2018-12-04T13:23:31.618Z,98646.30
2018-12-04T13:26:02.450Z,98640.52
2018-12-04T13:28:33.030Z,98642.52
2018-12-04T13:31:03.304Z,98656.31
2018-12-04T13:33:34.753Z,98660.70
2018-12-04T13:36:06.034Z,98669.23
2018-12-04T13:38:36.132Z,98671.55
2018-12-04T13:41:06.476Z,98675.80
2018-12-04T13:43:37.257Z,98479.64
2018-12-04T13:46:07.593Z,98691.66
2018-12-04T13:48:38.338Z,98701.02
2018-12-04T13:51:14.357Z,98709.44
2018-12-04T13:53:45.384Z,98710.88
2018-12-04T13:56:16.599Z,98715.00
2018-12-04T13:58:48.986Z,98719.47
2018-12-04T14:01:20.446Z,98733.73
2018-12-04T14:04:20.802Z,98737.64
2018-12-04T14:07:37.931Z,98745.70
2018-12-04T14:10:59.118Z,98752.84
2018-12-04T14:14:14.421Z,98767.80
2018-12-04T14:17:31.732Z,98760.61
2018-12-04T14:20:48.949Z,98760.97
2018-12-04T14:24:04.541Z,98763.69
2018-12-04T14:27:21.921Z,98771.38
2018-12-04T14:30:37.198Z,98787.64
2018-12-04T14:33:52.795Z,98791.80
2018-12-04T14:37:09.083Z,98801.36
2018-12-04T14:40:25.265Z,98807.05
2018-12-04T14:43:11.147Z,98811.20
2018-12-04T14:45:41.503Z,98816.20
2018-12-04T14:48:12.891Z,98821.73
2018-12-04T14:50:45.637Z,98826.64
2018-12-04T14:53:16.751Z,98832.96
2018-12-04T14:55:47.691Z,98851.98
2018-12-04T14:58:23.971Z,98862.22
2018-12-04T15:00:54.579Z,98864.34
2018-12-04T15:03:25.823Z,98878.23
2018-12-04T15:05:59.005Z,98885.58
2018-12-04T15:08:29.147Z,98888.75
2018-12-04T15:11:00.851Z,98896.42
2018-12-04T15:13:31.506Z,98896.81
2018-12-04T15:16:01.621Z,98898.45
2018-12-04T15:18:32.851Z,98896.09
2018-12-04T15:21:03.364Z,98891.95
2018-12-04T15:23:34.096Z,98902.31
2018-12-04T15:26:04.460Z,98910.61
2018-12-04T15:28:34.934Z,98919.23
2018-12-04T15:31:05.596Z,98923.91
2018-12-04T15:33:35.908Z,98920.88
2018-12-04T15:36:09.729Z,98925.82
2018-12-04T15:38:40.072Z,98936.75
2018-12-04T15:41:11.102Z,98941.05
2018-12-04T15:43:49.878Z,98955.94
2018-12-04T15:46:21.343Z,98960.30
2018-12-04T15:48:53.988Z,98958.86
2018-12-04T15:51:24.836Z,98958.86
2018-12-04T15:53:55.105Z,98963.45
2018-12-04T15:56:25.839Z,98959.34
2018-12-04T15:58:56.048Z,98967.69
2018-12-04T16:01:26.891Z,98973.52
2018-12-04T16:03:57.918Z,98982.00
2018-12-04T16:06:28.036Z,98990.86
2018-12-04T16:08:59.420Z,98993.14
2018-12-04T16:11:29.735Z,98997.06
2018-12-04T16:14:00.091Z,99002.61
2018-12-04T16:16:31.230Z,99002.81
2018-12-04T16:19:01.836Z,99002.75
2018-12-04T16:21:32.099Z,99023.88
2018-12-04T16:24:03.205Z,99020.53
2018-12-04T16:26:34.057Z,99024.89
2018-12-04T16:29:05.076Z,99040.77
2018-12-04T16:31:35.254Z,99050.73
2018-12-04T16:34:06.190Z,99061.49
2018-12-04T16:36:36.952Z,99070.52
2018-12-04T16:39:09.282Z,99067.24
2018-12-04T16:41:41.207Z,99067.98
2018-12-04T16:44:11.526Z,99068.42
2018-12-04T16:46:42.270Z,99075.58
2018-12-04T16:49:13.183Z,99078.73
2018-12-04T16:51:43.465Z,99085.69
2018-12-04T16:54:14.361Z,99085.38
2018-12-04T16:56:44.850Z,99090.84
2018-12-04T16:59:15.318Z,99103.00
2018-12-04T17:01:46.264Z,99107.09
2018-12-04T17:04:16.373Z,99103.80
2018-12-04T17:06:53.131Z,99114.05
2018-12-04T17:09:24.277Z,99105.30
2018-12-04T17:11:55.218Z,99105.26
2018-12-04T17:14:28.230Z,99109.40
2018-12-04T17:16:59.313Z,99110.77
2018-12-04T17:19:29.454Z,99120.23
2018-12-04T17:22:03.713Z,99120.81
2018-12-04T17:24:34.144Z,99116.44
2018-12-04T17:27:04.435Z,99117.97
2018-12-04T17:29:35.365Z,99129.06
2018-12-04T17:32:06.536Z,99145.73
2018-12-04T17:34:37.386Z,99149.13
2018-12-04T17:37:08.139Z,99147.58
2018-12-04T17:39:38.656Z,99153.40
2018-12-04T17:42:09.377Z,99159.17
2018-12-04T17:44:41.680Z,99156.40
2018-12-04T17:47:13.783Z,99163.75
2018-12-04T17:49:46.679Z,99175.94
2018-12-04T17:52:17.583Z,99182.06
2018-12-04T17:54:48.575Z,99188.23
2018-12-04T17:57:27.433Z,99194.22
2018-12-04T17:59:58.320Z,99206.72
2018-12-04T18:02:28.789Z,99211.20
2018-12-04T18:04:59.700Z,99218.28
2018-12-04T18:07:30.200Z,99212.06
2018-12-04T18:10:01.860Z,99212.80
2018-12-04T18:12:35.102Z,99217.08
2018-12-04T18:15:09.229Z,99214.73
2018-12-04T18:17:41.994Z,99205.70
2018-12-04T18:20:17.495Z,99201.25
2018-12-04T18:22:53.250Z,99210.66
2018-12-04T18:25:26.612Z,99213.41
2018-12-04T18:27:56.778Z,99217.36
2018-12-04T18:30:27.969Z,99232.94
2018-12-04T18:33:00.870Z,99241.52
2018-12-04T18:35:32.773Z,99241.34
2018-12-04T18:38:05.975Z,99240.68
2018-12-04T18:40:38.842Z,99252.86
2018-12-04T18:43:10.446Z,99262.56
2018-12-04T18:45:41.360Z,99276.66
2018-12-04T18:48:11.688Z,99284.55
2018-12-04T18:50:42.249Z,99277.83
2018-12-04T18:53:12.806Z,99285.00
2018-12-04T18:55:43.261Z,99287.75
2018-12-04T18:58:13.744Z,99294.69
2018-12-04T19:00:44.243Z,99308.64
2018-12-04T19:03:14.648Z,99310.19
2018-12-04T19:05:45.419Z,99318.86
2018-12-04T19:08:16.069Z,99324.37
2018-12-04T19:10:46.246Z,99322.81
2018-12-04T19:13:16.937Z,99327.70
2018-12-04T19:15:47.829Z,99331.25
2018-12-04T19:18:18.006Z,99345.63
2018-12-04T19:20:48.988Z,99355.81
2018-12-04T19:23:20.768Z,99357.35
2018-12-04T19:25:53.119Z,99362.73
2018-12-04T19:28:23.822Z,99363.13
2018-12-04T19:30:53.932Z,99361.20
2018-12-04T19:33:29.088Z,99365.89
2018-12-04T19:35:59.199Z,99371.20
2018-12-04T19:38:29.426Z,99372.41
2018-12-04T19:41:01.976Z,99384.52
2018-12-04T19:43:33.452Z,99390.85
2018-12-04T19:46:04.286Z,99394.51
2018-12-04T19:48:39.254Z,99406.00
2018-12-04T19:51:12.175Z,99404.89
2018-12-04T19:53:42.827Z,99401.31
2018-12-04T19:56:13.350Z,99406.40
2018-12-04T19:58:44.035Z,99412.70
2018-12-04T20:01:16.663Z,99413.91
2018-12-04T20:03:48.018Z,99428.05
2018-12-04T20:06:19.633Z,99421.96
2018-12-04T20:08:54.207Z,99430.41
2018-12-04T20:11:29.346Z,99426.73
2018-12-04T20:14:00.204Z,99420.03
2018-12-04T20:16:36.103Z,99421.36
2018-12-04T20:19:07.454Z,99418.00
2018-12-04T20:21:41.321Z,99422.08
2018-12-04T20:26:58.321Z,99440.44
2018-12-04T20:29:30.268Z,99440.01
2018-12-04T20:32:03.235Z,99439.68
2018-12-04T20:34:34.227Z,99446.47
2018-12-04T20:37:09.349Z,99442.84
2018-12-04T20:39:39.653Z,99450.36
2018-12-04T20:42:10.372Z,99457.69
2018-12-04T20:44:40.913Z,99449.95
2018-12-04T20:47:12.393Z,99452.39
2018-12-04T20:49:42.510Z,99462.77
2018-12-04T20:52:12.931Z,99472.57
2018-12-04T20:54:44.002Z,99479.57
2018-12-04T20:57:14.558Z,99475.66
2018-12-04T20:59:45.387Z,99487.29
2018-12-04T21:02:15.885Z,99488.06
2018-12-04T21:04:46.369Z,99477.30
2018-12-04T21:07:20.520Z,99475.52
2018-12-04T21:09:52.391Z,99483.45
2018-12-04T21:12:24.273Z,99494.71
2018-12-04T21:14:55.389Z,99504.63
2018-12-04T21:17:28.301Z,99503.30
2018-12-04T21:20:01.350Z,99501.59
2018-12-04T21:22:32.307Z,99495.74
2018-12-04T21:25:02.534Z,99499.21
2018-12-04T21:27:40.909Z,99502.97
2018-12-04T21:30:19.052Z,99438.18
2018-12-04T21:32:54.807Z,99508.00
2018-12-04T21:36:32.483Z,99517.85
2018-12-04T21:39:14.544Z,99527.14
2018-12-04T21:41:50.923Z,99522.34
2018-12-04T21:44:27.925Z,99529.23
2018-12-04T21:47:03.789Z,99536.42
2018-12-04T21:49:35.656Z,99544.45
2018-12-04T21:52:10.520Z,99543.56
2018-12-04T21:54:41.419Z,99545.89
2018-12-04T21:57:12.353Z,99484.41
2018-12-04T21:59:42.654Z,99556.36
2018-12-04T22:02:16.561Z,99566.84
2018-12-04T22:04:46.666Z,99571.02
2018-12-04T22:07:17.952Z,99570.94
2018-12-04T22:09:48.504Z,99578.33
2018-12-04T22:12:19.398Z,99578.95
2018-12-04T22:14:49.740Z,99581.23
2018-12-04T22:17:26.388Z,99584.07
2018-12-04T22:19:57.682Z,99580.97
2018-12-04T22:22:29.260Z,99590.93
2018-12-04T22:25:00.671Z,99591.80
2018-12-04T22:27:32.610Z,99598.94
2018-12-04T22:30:02.716Z,99598.94
2018-12-04T22:32:35.835Z,99601.84
2018-12-04T22:35:07.104Z,99597.34
2018-12-04T22:37:39.998Z,99598.37
2018-12-04T22:40:10.516Z,99597.29
2018-12-04T22:42:41.129Z,99611.09
2018-12-04T22:45:17.358Z,99615.56
2018-12-04T22:47:47.713Z,99621.84
2018-12-04T22:50:18.770Z,99615.84
2018-12-04T22:52:48.962Z,99616.86
2018-12-04T22:55:19.956Z,99629.95
2018-12-04T22:57:50.767Z,99627.91
2018-12-04T23:00:35.649Z,99639.23
2018-12-04T23:03:06.913Z,99630.13
2018-12-04T23:05:40.056Z,99642.16
2018-12-04T23:08:10.974Z,99639.14
2018-12-04T23:10:41.809Z,99641.67
2018-12-04T23:13:11.945Z,99649.40
2018-12-04T23:15:43.124Z,99647.54
2018-12-04T23:18:16.233Z,99652.25
2018-12-04T23:20:46.915Z,99650.95
2018-12-04T23:23:17.890Z,99652.33
2018-12-04T23:25:50.095Z,99644.92
2018-12-04T23:28:22.617Z,99648.09
2018-12-04T23:30:53.354Z,99649.77
2018-12-04T23:33:24.754Z,99655.74
2018-12-04T23:35:54.818Z,99654.47
2018-12-04T23:38:25.814Z,99652.48
2018-12-04T23:40:55.897Z,99653.18
2018-12-04T23:43:26.160Z,99655.18
2018-12-04T23:45:56.612Z,99656.98
2018-12-04T23:48:27.273Z,99660.64
2018-12-04T23:50:57.591Z,99664.95
2018-12-04T23:53:28.050Z,99656.11
2018-12-04T23:55:58.750Z,99668.52
2018-12-04T23:58:29.463Z,99660.66
